Phoenix, AZ (85023)

12:50 AM MST on August 23, 2014 (GMT -0700)
NW Phoenix | Change Station
CLOSE
Current Station
Personal Weather Station
Location: Phoenix, AZ
Elevation: 1320 ft
Nearby Weather Stations

Elev 1320 ft 33.63 °N, 112.11 °W | Updated 4 seconds ago

Clear
Clear
76.2 °F
Feels Like 78 °F
N
0.0
Wind Variable Wind from NE
Gusts 0.0 mph

Today
High -- | Low -- °F
--% Chance of Precip.
Yesterday
High -- | Low -- °F
Precip. -- in
5:56 AM 7:05 PM
Waning Crescent, 5% visible
Pressure 29.84 in
Visibility 10.0 miles
Clouds Clear
Heat Index 78 °F
Dew Point 62 °F
Humidity 61%
Rainfall 0.00 in
Snow Depth Not available.
UV 0 out of 12
Pollen 4.30 out of 12
PM2.5 Good
Flu Activity Not available.
METAR KDVT 230653Z AUTO 00000KT 10SM CLR 25/19 A2990 RMK AO2 SLP103 T02500194 403220206

More Conditions Fewer Conditions

Pressure 29.84 in
Visibility 10.0 miles
Clouds Clear
Heat Index 78 °F
Dew Point 62 °F
Humidity 61%
Rainfall 0.00 in
Snow Depth Not available.
UV 0 out of 12
Pollen 4.30 out of 12
PM2.5 Good
Flu Activity Not available.
METAR KDVT 230653Z AUTO 00000KT 10SM CLR 25/19 A2990 RMK AO2 SLP103 T02500194 403220206

More Conditions Fewer Conditions

10-Day Weather Forecast

Almanac

Astronomy

Aug. 23, 2014 Rise Set
Actual Time 5:56 AM MST 7:05 PM MST
Civil Twilight 5:30 AM MST 7:31 PM MST
Nautical Twilight 4:59 AM MST 8:01 PM MST
Astronomical Twilight 4:27 AM MST 8:33 PM MST
Moon 4:17 AM MST 5:51 PM MST
Length of Visible Light 14h 00m
Length of Day
13h 08m
Tomorrow will be 1m 55s shorter.
Waning Crescent, 5% of the Moon is Illuminated
Today
Waning Crescent
Aug 25
New
Sep 2
First Quarter
Sep 8
Full
Sep 15
Last Quarter

Today's Extremes

State Highs State Lows

Community

WunderPhotos

Upload Photos

1,746,384 photos uploaded!

WunderBlogs® & News

By Dr. Jeff Masters
Director of Meteorology, Weather Underground
By Kari Strenfel
Meteorologist, Weather Underground
By Christopher C. Burt
Weather Historian, Weather Underground
August 23, 2014
August 23, 2014
August 22, 2014

Nearby

Air Quality

  Air Quality AQ Index Pollutant
Yesterday Good
OZONE
Yesterday Good
PM10
Current Good
PM2.5
Saturday Moderate
OZONE
Saturday Good
PM10
Saturday Good
CO
Sunday Moderate
OZONE
Sunday Good
PM10
Sunday Good
CO

Snow Depth

Station Depth Elevation
Workman Creek 2 in 6900 ft
Promontory 0 in 7930 ft
Heber 0 in 7640 ft
Mormon Mountain 0 in 7500 ft
White Horse Lake 1 in 7180 ft

Earthquake Activity

City Distance Mag. Time & Date
No recent earthquake activity has been reported nearby.
Minimum magnitude displayed is 2.5.

Coastal Water Temperatures

Place Temperature
No Stations Reporting

Nearby Weather Stations